createdAt,value
2023-01-12T00:02:22.587Z,2.33
2023-01-12T00:04:50.934Z,2.37
2023-01-12T00:07:20.705Z,2.87
2023-01-12T00:09:49.096Z,2.40
2023-01-12T00:12:17.491Z,2.67
2023-01-12T00:14:45.829Z,2.30
2023-01-12T00:17:17.128Z,2.50
2023-01-12T00:19:45.308Z,2.83
2023-01-12T00:22:18.329Z,2.70
2023-01-12T00:24:49.906Z,2.03
2023-01-12T00:27:20.617Z,2.50
2023-01-12T00:29:49.256Z,2.23
2023-01-12T00:32:19.448Z,2.30
2023-01-12T00:34:48.458Z,2.53
2023-01-12T00:37:16.830Z,2.57
2023-01-12T00:40:00.931Z,2.70
2023-01-12T00:42:48.832Z,2.50
2023-01-12T00:45:23.440Z,2.50
2023-01-12T00:47:51.646Z,2.17
2023-01-12T00:50:19.943Z,2.10
2023-01-12T00:52:48.244Z,1.93
2023-01-12T00:55:16.648Z,2.33
2023-01-12T00:57:46.341Z,2.00
2023-01-12T01:00:15.704Z,2.83
2023-01-12T01:02:43.895Z,2.63
2023-01-12T01:05:12.180Z,2.60
2023-01-12T01:07:40.447Z,2.10
2023-01-12T01:10:09.801Z,2.63
2023-01-12T01:12:38.213Z,2.57
2023-01-12T01:15:08.969Z,2.40
2023-01-12T01:17:37.200Z,2.50
2023-01-12T01:20:06.726Z,2.47
2023-01-12T01:22:34.895Z,2.40
2023-01-12T01:25:03.077Z,2.03
2023-01-12T01:27:31.328Z,2.50
2023-01-12T01:29:59.569Z,2.83
2023-01-12T01:32:29.219Z,2.27
2023-01-12T01:34:57.440Z,2.50
2023-01-12T01:37:25.584Z,2.23
2023-01-12T01:39:55.089Z,2.13
2023-01-12T01:42:29.059Z,2.83
2023-01-12T01:44:59.208Z,3.00
2023-01-12T01:47:32.640Z,2.37
2023-01-12T01:50:02.980Z,2.53
2023-01-12T01:52:35.823Z,2.17
2023-01-12T01:55:08.118Z,2.30
2023-01-12T01:57:44.154Z,2.80
2023-01-12T02:00:14.402Z,2.27
2023-01-12T02:02:46.756Z,2.60
2023-01-12T02:05:17.243Z,2.13
2023-01-12T02:07:45.708Z,2.57
2023-01-12T02:10:13.874Z,2.73
2023-01-12T02:13:00.810Z,2.03
2023-01-12T02:15:54.023Z,2.87
2023-01-12T02:18:31.480Z,2.07
2023-01-12T02:21:12.707Z,2.20
2023-01-12T02:24:20.531Z,3.10
2023-01-12T02:27:22.108Z,2.27
2023-01-12T02:30:31.874Z,2.23
2023-01-12T02:33:11.630Z,2.20
2023-01-12T02:35:46.338Z,2.50
2023-01-12T02:38:21.225Z,2.20
2023-01-12T02:40:59.291Z,2.40
2023-01-12T02:43:28.758Z,2.90
2023-01-12T02:46:04.694Z,2.27
2023-01-12T02:48:38.505Z,2.60
2023-01-12T02:51:11.863Z,2.40
2023-01-12T02:53:44.778Z,2.50
2023-01-12T02:56:18.075Z,2.10
2023-01-12T02:58:49.545Z,2.30
2023-01-12T03:01:20.542Z,2.70
2023-01-12T03:03:52.131Z,2.33
2023-01-12T03:06:20.815Z,2.30
2023-01-12T03:08:52.673Z,2.30
2023-01-12T03:11:22.839Z,2.10
2023-01-12T03:13:54.227Z,2.50
2023-01-12T03:16:25.963Z,2.70
2023-01-12T03:18:59.917Z,2.67
2023-01-12T03:21:31.656Z,2.07
2023-01-12T03:24:05.397Z,2.30
2023-01-12T03:26:35.231Z,2.63
2023-01-12T03:29:09.404Z,2.70
2023-01-12T03:31:38.692Z,2.27
2023-01-12T03:34:09.355Z,2.80
2023-01-12T03:36:46.156Z,2.17
2023-01-12T03:39:22.157Z,2.53
2023-01-12T03:41:57.606Z,2.70
2023-01-12T03:44:34.036Z,2.63
2023-01-12T03:47:05.714Z,2.47
2023-01-12T03:49:41.184Z,2.33
2023-01-12T03:52:11.827Z,2.20
2023-01-12T03:54:42.370Z,2.60
2023-01-12T03:57:12.672Z,2.83
2023-01-12T03:59:41.518Z,2.50
2023-01-12T04:02:09.995Z,2.90
2023-01-12T04:04:39.741Z,2.80
2023-01-12T04:07:08.022Z,2.43
2023-01-12T04:09:37.563Z,2.80
2023-01-12T04:12:12.310Z,2.23
2023-01-12T04:14:42.231Z,2.50
2023-01-12T04:17:13.182Z,2.57
2023-01-12T04:19:43.143Z,2.40
2023-01-12T04:22:31.656Z,2.60
2023-01-12T04:24:59.949Z,2.73
2023-01-12T04:27:28.322Z,2.33
2023-01-12T04:29:56.668Z,2.43
2023-01-12T04:32:25.191Z,2.60
2023-01-12T04:34:55.201Z,2.73
2023-01-12T04:37:23.364Z,3.03
2023-01-12T04:39:51.617Z,2.90
2023-01-12T04:42:38.479Z,3.07
2023-01-12T04:45:07.599Z,2.43
2023-01-12T04:47:35.931Z,2.57
2023-01-12T04:50:06.641Z,2.80
2023-01-12T04:52:35.333Z,2.73
2023-01-12T04:55:03.723Z,2.50
2023-01-12T04:57:32.317Z,2.93
2023-01-12T05:00:00.599Z,2.80
2023-01-12T05:02:29.524Z,2.97
2023-01-12T05:04:57.792Z,2.93
2023-01-12T05:07:27.615Z,2.90
2023-01-12T05:10:13.237Z,3.03
2023-01-12T05:12:41.456Z,2.63
2023-01-12T05:15:10.767Z,2.60
2023-01-12T05:17:39.151Z,2.53
2023-01-12T05:20:08.834Z,2.50
2023-01-12T05:22:38.561Z,2.63
2023-01-12T05:25:07.863Z,3.07
2023-01-12T05:27:36.625Z,3.17
2023-01-12T05:30:05.592Z,2.73
2023-01-12T05:32:37.981Z,2.50
2023-01-12T05:35:07.633Z,2.93
2023-01-12T05:37:36.490Z,2.87
2023-01-12T05:40:07.296Z,2.30
2023-01-12T05:42:53.103Z,2.77
2023-01-12T05:45:21.416Z,2.60
2023-01-12T05:47:57.014Z,2.57
2023-01-12T05:50:25.269Z,2.50
2023-01-12T05:53:08.770Z,2.40
2023-01-12T05:55:40.351Z,2.60
2023-01-12T05:58:08.515Z,2.50
2023-01-12T06:00:36.706Z,2.70
2023-01-12T06:03:04.991Z,2.83
2023-01-12T06:05:33.175Z,2.53
2023-01-12T06:08:02.825Z,2.80
2023-01-12T06:10:31.247Z,2.50
2023-01-12T06:13:18.100Z,2.40
2023-01-12T06:15:46.500Z,2.33
2023-01-12T06:18:14.691Z,2.63
2023-01-12T06:20:42.880Z,2.73
2023-01-12T06:23:11.032Z,2.90
2023-01-12T06:25:39.443Z,2.90
2023-01-12T06:28:08.988Z,2.60
2023-01-12T06:30:37.286Z,2.27
2023-01-12T06:33:05.568Z,2.23
2023-01-12T06:35:33.712Z,2.30
2023-01-12T06:38:02.044Z,2.20
2023-01-12T06:40:30.343Z,2.90
2023-01-12T06:42:58.665Z,2.73
2023-01-12T06:45:28.323Z,2.30
2023-01-12T06:47:57.296Z,2.03
2023-01-12T06:50:25.493Z,2.20
2023-01-12T06:52:53.640Z,2.10
2023-01-12T06:55:22.010Z,2.40
2023-01-12T06:57:50.459Z,2.23
2023-01-12T07:00:19.316Z,2.10
2023-01-12T07:02:51.787Z,2.20
2023-01-12T07:05:20.456Z,2.53
2023-01-12T07:07:48.772Z,2.30
2023-01-12T07:10:17.753Z,2.40
2023-01-12T07:12:45.903Z,2.70
2023-01-12T07:15:15.474Z,1.87
2023-01-12T07:17:43.796Z,2.07
2023-01-12T07:20:13.974Z,1.90
2023-01-12T07:22:42.303Z,1.97
2023-01-12T07:25:11.086Z,2.00
2023-01-12T07:27:39.314Z,2.23
2023-01-12T07:30:08.908Z,2.20
2023-01-12T07:32:37.142Z,1.90
2023-01-12T07:35:06.168Z,2.00
2023-01-12T07:37:35.902Z,1.80
2023-01-12T07:40:04.264Z,1.80
2023-01-12T07:42:33.482Z,1.97
2023-01-12T07:45:01.943Z,1.80
2023-01-12T07:47:30.355Z,2.23
2023-01-12T07:49:58.614Z,1.77
2023-01-12T07:52:27.008Z,2.10
2023-01-12T07:54:56.842Z,2.03
2023-01-12T07:57:26.015Z,1.80
2023-01-12T07:59:54.139Z,1.90
2023-01-12T08:02:22.559Z,1.97
2023-01-12T08:04:50.831Z,2.10
2023-01-12T08:07:18.960Z,1.93
2023-01-12T08:09:47.174Z,2.07
2023-01-12T08:12:16.841Z,2.13
2023-01-12T08:14:45.228Z,2.00
2023-01-12T08:17:19.718Z,1.83
2023-01-12T08:19:50.612Z,1.83
2023-01-12T08:22:23.750Z,2.10
2023-01-12T08:24:56.616Z,1.87
2023-01-12T08:27:30.046Z,1.57
2023-01-12T08:29:59.967Z,1.87
2023-01-12T08:32:29.428Z,2.10
2023-01-12T08:35:02.162Z,2.13
2023-01-12T08:37:35.292Z,2.07
2023-01-12T08:40:05.387Z,2.20
2023-01-12T08:42:35.154Z,2.13
2023-01-12T08:45:03.465Z,2.30
2023-01-12T08:47:31.830Z,2.10
2023-01-12T08:50:01.688Z,2.50
2023-01-12T08:52:32.610Z,2.20
2023-01-12T08:55:11.345Z,2.20
2023-01-12T08:57:43.280Z,2.13
2023-01-12T09:00:12.690Z,1.80
2023-01-12T09:02:40.988Z,1.70
2023-01-12T09:05:10.118Z,2.30
2023-01-12T09:07:38.445Z,2.00
2023-01-12T09:10:08.005Z,2.50
2023-01-12T09:12:36.439Z,2.40
2023-01-12T09:15:06.848Z,2.10
2023-01-12T09:17:35.120Z,2.17
2023-01-12T09:20:03.743Z,2.70
2023-01-12T09:22:32.274Z,2.70
2023-01-12T09:25:00.701Z,2.17
2023-01-12T09:27:29.204Z,2.70
2023-01-12T09:29:57.429Z,2.40
2023-01-12T09:32:36.113Z,2.00
2023-01-12T09:35:05.140Z,2.30
2023-01-12T09:37:33.461Z,2.33
2023-01-12T09:40:03.841Z,2.50
2023-01-12T09:42:51.654Z,2.17
2023-01-12T09:45:44.277Z,1.90
2023-01-12T09:48:15.918Z,2.10
2023-01-12T09:50:52.582Z,2.77
2023-01-12T09:53:24.034Z,2.47
2023-01-12T09:56:01.750Z,2.10
2023-01-12T09:59:07.710Z,2.00
2023-01-12T10:01:37.633Z,2.27
2023-01-12T10:04:08.361Z,1.60
2023-01-12T10:06:37.482Z,2.10
2023-01-12T10:09:07.826Z,2.00
2023-01-12T10:11:44.562Z,1.90
2023-01-12T10:14:49.487Z,1.87
2023-01-12T10:17:27.823Z,2.17
2023-01-12T10:20:03.859Z,2.10
2023-01-12T10:22:39.967Z,1.93
2023-01-12T10:25:36.001Z,1.83
2023-01-12T10:28:09.558Z,2.13
2023-01-12T10:30:41.666Z,1.80
2023-01-12T10:33:15.460Z,1.73
2023-01-12T10:35:58.004Z,1.90
2023-01-12T10:38:29.019Z,2.13
2023-01-12T10:41:13.739Z,1.87
2023-01-12T10:43:43.689Z,1.60
2023-01-12T10:46:14.828Z,1.60
2023-01-12T10:48:45.371Z,1.60
2023-01-12T10:51:24.108Z,1.70
2023-01-12T10:53:55.816Z,1.40
2023-01-12T10:56:28.812Z,1.70
2023-01-12T10:59:01.487Z,1.40
2023-01-12T11:01:44.926Z,1.57
2023-01-12T11:04:15.148Z,1.10
2023-01-12T11:06:46.825Z,1.40
2023-01-12T11:09:26.054Z,1.30
2023-01-12T11:11:56.004Z,1.00
2023-01-12T11:14:30.856Z,1.20
2023-01-12T11:17:20.620Z,1.20
2023-01-12T11:19:50.126Z,1.20
2023-01-12T11:22:23.682Z,1.37
2023-01-12T11:24:57.404Z,1.30
2023-01-12T11:27:32.830Z,1.27
2023-01-12T11:30:05.619Z,1.70
2023-01-12T11:32:40.145Z,1.30
2023-01-12T11:35:27.990Z,1.10
2023-01-12T11:38:04.975Z,1.03
2023-01-12T11:40:37.448Z,1.30
2023-01-12T11:43:35.262Z,1.60
2023-01-12T11:46:13.461Z,1.20
2023-01-12T11:48:50.149Z,1.13
2023-01-12T11:51:18.456Z,1.20
2023-01-12T11:53:48.273Z,1.23
2023-01-12T11:56:29.409Z,0.90
2023-01-12T11:59:06.202Z,0.90
2023-01-12T12:01:42.367Z,1.37
2023-01-12T12:04:22.536Z,1.00
2023-01-12T12:07:02.230Z,1.30
2023-01-12T12:09:51.541Z,0.90
2023-01-12T12:12:27.886Z,0.90
2023-01-12T12:15:10.794Z,1.20
2023-01-12T12:17:51.430Z,1.10
2023-01-12T12:20:30.636Z,0.97
2023-01-12T12:23:11.823Z,1.10
2023-01-12T12:25:52.219Z,1.17
2023-01-12T12:28:38.564Z,1.17
2023-01-12T12:31:30.264Z,0.70
2023-01-12T12:34:17.677Z,0.93
2023-01-12T12:36:51.518Z,1.00
2023-01-12T12:39:36.052Z,0.90
2023-01-12T12:42:36.812Z,0.90
2023-01-12T12:45:17.766Z,0.80
2023-01-12T12:48:05.331Z,1.00
2023-01-12T12:50:39.988Z,1.00
2023-01-12T12:53:17.290Z,1.10
2023-01-12T12:55:46.562Z,1.00
2023-01-12T12:58:42.542Z,1.00
2023-01-12T13:01:55.681Z,1.27
2023-01-12T13:05:04.792Z,0.93
2023-01-12T13:07:37.445Z,1.13
2023-01-12T13:10:19.802Z,1.13
2023-01-12T13:12:58.586Z,0.83
2023-01-12T13:15:36.939Z,1.10
2023-01-12T13:18:07.044Z,1.13
2023-01-12T13:20:55.633Z,1.00
2023-01-12T13:23:47.443Z,0.80
2023-01-12T13:26:46.533Z,0.87
2023-01-12T13:29:37.182Z,1.00
2023-01-12T13:32:42.303Z,1.00
2023-01-12T13:35:52.572Z,0.90
2023-01-12T13:38:43.731Z,1.10
2023-01-12T13:41:39.033Z,1.23
2023-01-12T13:44:08.270Z,1.00
2023-01-12T13:46:42.041Z,1.23
2023-01-12T13:49:26.688Z,0.90
2023-01-12T13:51:59.092Z,0.80
2023-01-12T13:54:29.744Z,1.10
2023-01-12T13:56:59.962Z,0.83
2023-01-12T13:59:30.105Z,0.90
2023-01-12T14:01:59.517Z,1.00
2023-01-12T14:04:53.675Z,1.00
2023-01-12T14:07:31.823Z,1.07
2023-01-12T14:10:14.514Z,1.00
2023-01-12T14:13:11.343Z,0.97
2023-01-12T14:16:13.411Z,0.90
2023-01-12T14:18:46.430Z,0.60
2023-01-12T14:21:25.348Z,0.80
2023-01-12T14:23:53.779Z,0.70
2023-01-12T14:26:27.048Z,1.00
2023-01-12T14:28:55.423Z,0.73
2023-01-12T14:31:27.781Z,1.03
2023-01-12T14:33:57.698Z,1.10
2023-01-12T14:36:30.004Z,0.80
2023-01-12T14:39:00.515Z,0.80
2023-01-12T14:41:48.601Z,0.87
2023-01-12T14:44:38.307Z,0.90
2023-01-12T14:47:07.858Z,0.57
2023-01-12T14:49:37.887Z,0.90
2023-01-12T14:52:24.371Z,0.73
2023-01-12T14:54:52.807Z,1.00
2023-01-12T14:57:24.944Z,0.90
2023-01-12T14:59:53.743Z,0.83
2023-01-12T15:02:34.740Z,1.13
2023-01-12T15:05:05.953Z,0.87
2023-01-12T15:07:38.424Z,0.90
2023-01-12T15:10:29.006Z,0.93
2023-01-12T15:12:58.621Z,0.97
2023-01-12T15:15:49.007Z,0.87
2023-01-12T15:18:34.993Z,0.87
2023-01-12T15:21:22.089Z,0.90
2023-01-12T15:24:09.305Z,0.90
2023-01-12T15:26:37.564Z,0.87
2023-01-12T15:29:06.159Z,0.93
2023-01-12T15:31:36.889Z,1.10
2023-01-12T15:34:07.402Z,0.77
2023-01-12T15:36:36.733Z,0.77
2023-01-12T15:39:06.335Z,1.10
2023-01-12T15:42:00.414Z,1.27
2023-01-12T15:44:28.630Z,1.10
2023-01-12T15:46:56.893Z,1.00
2023-01-12T15:49:25.144Z,0.93
2023-01-12T15:51:53.715Z,1.10
2023-01-12T15:54:23.306Z,1.20
2023-01-12T15:56:53.781Z,1.20
2023-01-12T15:59:22.133Z,1.30
2023-01-12T16:01:50.706Z,1.10
2023-01-12T16:07:10.623Z,0.90
2023-01-12T16:09:41.050Z,0.93
2023-01-12T16:12:10.219Z,1.20
2023-01-12T16:14:38.890Z,1.00
2023-01-12T16:17:07.112Z,1.30
2023-01-12T16:19:41.149Z,1.53
2023-01-12T16:22:17.835Z,1.20
2023-01-12T16:24:47.648Z,1.30
2023-01-12T16:27:16.487Z,1.30
2023-01-12T16:29:45.248Z,1.00
2023-01-12T16:32:14.207Z,1.20
2023-01-12T16:34:42.763Z,1.20
2023-01-12T16:37:14.131Z,1.23
2023-01-12T16:39:42.894Z,1.20
2023-01-12T16:42:12.742Z,1.10
2023-01-12T16:44:41.550Z,1.03
2023-01-12T16:47:13.334Z,1.07
2023-01-12T16:49:41.800Z,1.10
2023-01-12T16:52:14.435Z,1.13
2023-01-12T16:54:43.571Z,1.00
2023-01-12T16:57:14.665Z,1.13
2023-01-12T16:59:43.538Z,1.13
2023-01-12T17:02:14.619Z,0.90
2023-01-12T17:04:43.736Z,1.27
2023-01-12T17:07:12.168Z,1.30
2023-01-12T17:09:41.033Z,1.30
2023-01-12T17:12:09.620Z,0.90
2023-01-12T17:14:39.470Z,1.20
2023-01-12T17:17:11.604Z,1.10
2023-01-12T17:19:42.857Z,1.10
2023-01-12T17:22:12.352Z,0.97
2023-01-12T17:24:41.788Z,1.00
2023-01-12T17:27:11.642Z,1.30
2023-01-12T17:29:41.349Z,0.87
2023-01-12T17:32:09.540Z,0.93
2023-01-12T17:34:39.377Z,0.83
2023-01-12T17:37:08.819Z,0.87
2023-01-12T17:39:39.601Z,0.83
2023-01-12T17:42:26.364Z,0.83
2023-01-12T17:45:07.022Z,1.00
2023-01-12T17:47:44.953Z,0.97
2023-01-12T17:50:14.078Z,1.20
2023-01-12T17:52:42.356Z,1.10
2023-01-12T17:55:11.042Z,0.80
2023-01-12T17:57:39.325Z,1.07
2023-01-12T18:00:15.573Z,0.80
2023-01-12T18:02:44.293Z,0.90
2023-01-12T18:05:12.652Z,1.00
2023-01-12T18:07:42.147Z,0.77
2023-01-12T18:10:11.845Z,1.10
2023-01-12T18:12:40.395Z,0.87
2023-01-12T18:15:11.911Z,1.00
2023-01-12T18:17:40.119Z,1.03
2023-01-12T18:20:08.993Z,1.17
2023-01-12T18:22:37.213Z,0.90
2023-01-12T18:25:06.203Z,0.70
2023-01-12T18:27:35.709Z,0.80
2023-01-12T18:30:04.905Z,0.97
2023-01-12T18:32:34.648Z,0.80
2023-01-12T18:35:02.932Z,0.73
2023-01-12T18:37:31.267Z,1.00
2023-01-12T18:39:59.493Z,0.80
2023-01-12T18:42:46.166Z,1.10
2023-01-12T18:45:14.359Z,1.00
2023-01-12T18:48:01.667Z,0.93
2023-01-12T18:50:48.028Z,0.80
2023-01-12T18:53:29.547Z,0.73
2023-01-12T18:55:58.292Z,1.30
2023-01-12T18:58:28.548Z,0.97
2023-01-12T19:00:57.345Z,1.00
2023-01-12T19:03:26.985Z,0.80
2023-01-12T19:06:00.061Z,0.83
2023-01-12T19:08:47.200Z,0.70
2023-01-12T19:11:16.847Z,1.00
2023-01-12T19:14:02.496Z,1.00
2023-01-12T19:17:00.159Z,0.80
2023-01-12T19:19:30.297Z,1.00
2023-01-12T19:22:16.274Z,0.80
2023-01-12T19:25:01.812Z,0.90
2023-01-12T19:27:47.887Z,0.73
2023-01-12T19:30:16.903Z,1.10
2023-01-12T19:32:45.067Z,1.10
2023-01-12T19:35:14.819Z,0.90
2023-01-12T19:37:48.349Z,1.00
2023-01-12T19:40:25.253Z,1.13
2023-01-12T19:43:12.861Z,0.90
2023-01-12T19:45:42.160Z,1.20
2023-01-12T19:48:11.449Z,1.40
2023-01-12T19:50:43.208Z,1.33
2023-01-12T19:53:14.789Z,0.93
2023-01-12T19:55:44.047Z,1.30
2023-01-12T19:58:12.934Z,1.13
2023-01-12T20:00:44.947Z,1.30
2023-01-12T20:03:14.433Z,0.90
2023-01-12T20:05:47.354Z,1.13
2023-01-12T20:08:16.064Z,1.03
2023-01-12T20:10:44.478Z,1.30
2023-01-12T20:13:14.544Z,1.10
2023-01-12T20:15:44.818Z,0.90
2023-01-12T20:18:13.817Z,1.17
2023-01-12T20:20:43.962Z,1.50
2023-01-12T20:23:12.769Z,1.00
2023-01-12T20:25:42.045Z,1.00
2023-01-12T20:28:12.366Z,1.03
2023-01-12T20:30:41.977Z,1.10
2023-01-12T20:33:11.207Z,1.37
2023-01-12T20:35:44.279Z,1.07
2023-01-12T20:38:16.228Z,1.60
2023-01-12T20:40:45.474Z,1.17
2023-01-12T20:43:13.717Z,1.00
2023-01-12T20:45:42.932Z,1.10
2023-01-12T20:48:13.566Z,1.60
2023-01-12T20:50:45.556Z,1.30
2023-01-12T20:53:16.931Z,1.50
2023-01-12T20:55:46.407Z,1.33
2023-01-12T20:58:15.219Z,1.10
2023-01-12T21:00:44.335Z,1.30
2023-01-12T21:03:12.711Z,1.43
2023-01-12T21:05:43.214Z,1.43
2023-01-12T21:08:11.957Z,1.40
2023-01-12T21:10:48.014Z,0.87
2023-01-12T21:13:16.627Z,1.23
2023-01-12T21:15:45.061Z,1.20
2023-01-12T21:18:13.542Z,1.30
2023-01-12T21:20:43.113Z,1.60
2023-01-12T21:23:11.933Z,1.27
2023-01-12T21:25:43.601Z,1.20
2023-01-12T21:28:12.264Z,1.40
2023-01-12T21:30:41.290Z,1.37
2023-01-12T21:33:10.477Z,1.00
2023-01-12T21:35:39.891Z,1.33
2023-01-12T21:38:08.351Z,1.60
2023-01-12T21:40:37.906Z,1.20
2023-01-12T21:43:09.846Z,1.30
2023-01-12T21:45:38.774Z,1.10
2023-01-12T21:48:07.617Z,1.40
2023-01-12T21:50:36.386Z,1.37
2023-01-12T21:53:06.639Z,1.00
2023-01-12T21:55:35.422Z,1.10
2023-01-12T21:58:03.715Z,1.20
2023-01-12T22:00:33.430Z,1.30
2023-01-12T22:03:01.707Z,0.90
2023-01-12T22:05:30.212Z,1.37
2023-01-12T22:07:58.711Z,1.27
2023-01-12T22:10:30.444Z,1.30
2023-01-12T22:13:00.785Z,0.90
2023-01-12T22:15:30.955Z,0.93
2023-01-12T22:18:00.958Z,1.37
2023-01-12T22:20:29.411Z,1.23
2023-01-12T22:22:57.694Z,0.97
2023-01-12T22:25:26.919Z,1.10
2023-01-12T22:27:55.398Z,1.30
2023-01-12T22:30:25.111Z,1.10
2023-01-12T22:32:55.445Z,1.00
2023-01-12T22:35:26.125Z,1.03
2023-01-12T22:37:54.720Z,1.17
2023-01-12T22:40:23.165Z,1.40
2023-01-12T22:43:09.029Z,1.23
2023-01-12T22:45:37.753Z,1.30
2023-01-12T22:48:06.866Z,1.13
2023-01-12T22:50:36.516Z,1.10
2023-01-12T22:53:04.730Z,1.30
2023-01-12T22:55:33.144Z,1.20
2023-01-12T22:58:01.433Z,1.03
2023-01-12T23:00:29.650Z,1.43
2023-01-12T23:03:03.647Z,1.10
2023-01-12T23:05:35.914Z,1.20
2023-01-12T23:08:06.810Z,1.00
2023-01-12T23:10:35.194Z,1.27
2023-01-12T23:13:14.674Z,1.00
2023-01-12T23:15:45.611Z,1.00
2023-01-12T23:18:15.150Z,0.97
2023-01-12T23:20:43.601Z,1.27
2023-01-12T23:23:13.294Z,1.07
2023-01-12T23:25:44.524Z,1.23
2023-01-12T23:28:14.222Z,1.33
2023-01-12T23:30:42.537Z,1.20
2023-01-12T23:33:11.159Z,1.10
2023-01-12T23:35:41.032Z,1.10
2023-01-12T23:38:13.924Z,1.20
2023-01-12T23:40:42.224Z,0.83
2023-01-12T23:43:10.527Z,1.10
2023-01-12T23:45:38.773Z,1.17
2023-01-12T23:48:08.200Z,0.83
2023-01-12T23:50:36.504Z,0.80
2023-01-12T23:53:04.929Z,0.90
2023-01-12T23:55:34.515Z,0.90
2023-01-12T23:58:03.311Z,1.10
